createdAt,value
2017-12-25T00:02:06.065Z,15.93
2017-12-25T00:04:33.664Z,14.87
2017-12-25T00:07:01.240Z,15.90
2017-12-25T00:09:29.085Z,15.73
2017-12-25T00:11:56.677Z,13.93
2017-12-25T00:14:24.195Z,14.87
2017-12-25T00:16:51.758Z,12.47
2017-12-25T00:19:19.376Z,15.53
2017-12-25T00:21:47.148Z,15.60
2017-12-25T00:24:14.717Z,15.20
2017-12-25T00:26:42.288Z,16.10
2017-12-25T00:29:09.959Z,15.90
2017-12-25T00:31:37.536Z,16.20
2017-12-25T00:34:05.090Z,14.83
2017-12-25T00:36:32.645Z,16.20
2017-12-25T00:39:00.626Z,16.40
2017-12-25T00:41:28.156Z,14.30
2017-12-25T00:43:55.711Z,15.97
2017-12-25T00:46:23.371Z,15.17
2017-12-25T00:48:50.935Z,17.47
2017-12-25T00:51:18.490Z,15.90
2017-12-25T00:53:46.078Z,15.80
2017-12-25T00:56:13.680Z,15.63
2017-12-25T00:58:41.285Z,15.37
2017-12-25T01:01:08.804Z,18.30
2017-12-25T01:03:36.322Z,16.17
2017-12-25T01:06:04.321Z,16.10
2017-12-25T01:08:31.880Z,17.20
2017-12-25T01:10:59.453Z,17.80
2017-12-25T01:13:27.354Z,14.63
2017-12-25T01:15:54.908Z,17.93
2017-12-25T01:18:22.434Z,20.07
2017-12-25T01:20:50.048Z,16.80
2017-12-25T01:23:17.609Z,17.37
2017-12-25T01:25:45.211Z,16.93
2017-12-25T01:28:12.872Z,16.67
2017-12-25T01:30:40.637Z,17.83
2017-12-25T01:33:19.138Z,18.57
2017-12-25T01:35:46.667Z,17.50
2017-12-25T01:38:14.221Z,18.03
2017-12-25T01:40:41.796Z,13.17
2017-12-25T01:43:09.390Z,17.90
2017-12-25T01:45:36.975Z,17.37
2017-12-25T01:48:04.499Z,18.90
2017-12-25T01:50:32.063Z,18.50
2017-12-25T01:52:59.748Z,16.87
2017-12-25T01:55:28.178Z,17.90
2017-12-25T01:57:59.800Z,17.17
2017-12-25T02:00:41.887Z,16.37
2017-12-25T02:03:09.479Z,15.90
2017-12-25T02:05:48.075Z,17.90
2017-12-25T02:11:14.457Z,16.30
2017-12-25T02:13:41.981Z,15.77
2017-12-25T02:16:09.558Z,17.83
2017-12-25T02:18:37.106Z,16.87
2017-12-25T02:21:04.622Z,19.10
2017-12-25T02:23:32.202Z,16.40
2017-12-25T02:25:59.849Z,18.70
2017-12-25T02:28:27.372Z,16.17
2017-12-25T02:30:54.994Z,17.60
2017-12-25T02:33:22.651Z,17.13
2017-12-25T02:35:50.228Z,16.20
2017-12-25T02:38:17.817Z,15.27
2017-12-25T02:40:45.373Z,16.30
2017-12-25T02:43:12.902Z,17.20
2017-12-25T02:45:40.495Z,20.30
2017-12-25T02:48:08.045Z,16.80
2017-12-25T02:50:35.610Z,16.70
2017-12-25T02:53:03.363Z,15.17
2017-12-25T02:55:30.920Z,16.87
2017-12-25T02:57:58.556Z,15.37
2017-12-25T03:00:26.159Z,15.97
2017-12-25T03:02:53.745Z,15.27
2017-12-25T03:05:21.300Z,17.33
2017-12-25T03:07:48.874Z,15.43
2017-12-25T03:10:16.491Z,17.20
2017-12-25T03:12:44.044Z,15.67
2017-12-25T03:15:11.606Z,16.50
2017-12-25T03:17:39.158Z,14.67
2017-12-25T03:20:06.713Z,17.83
2017-12-25T03:22:34.325Z,17.27
2017-12-25T03:25:01.930Z,15.80
2017-12-25T03:27:29.451Z,16.70
2017-12-25T03:29:56.990Z,16.67
2017-12-25T03:32:24.946Z,18.50
2017-12-25T03:34:52.510Z,16.70
2017-12-25T03:37:20.062Z,16.30
2017-12-25T03:39:47.948Z,15.60
2017-12-25T03:42:15.481Z,14.90
2017-12-25T03:44:43.042Z,15.10
2017-12-25T03:47:10.621Z,14.73
2017-12-25T03:49:38.140Z,13.70
2017-12-25T03:52:05.746Z,15.20
2017-12-25T03:54:33.368Z,14.37
2017-12-25T03:57:01.181Z,13.20
2017-12-25T03:59:28.763Z,16.20
2017-12-25T04:01:56.479Z,14.63
2017-12-25T04:04:24.055Z,14.13
2017-12-25T04:06:51.882Z,15.27
2017-12-25T04:09:19.437Z,16.07
2017-12-25T04:11:47.054Z,13.03
2017-12-25T04:14:14.889Z,15.40
2017-12-25T04:16:42.445Z,14.00
2017-12-25T04:19:10.056Z,13.20
2017-12-25T04:21:37.612Z,13.07
2017-12-25T04:25:03.637Z,12.83
2017-12-25T04:27:31.234Z,13.10
2017-12-25T04:29:59.028Z,14.03
2017-12-25T04:32:26.550Z,12.30
2017-12-25T04:34:54.130Z,11.83
2017-12-25T04:37:21.731Z,13.57
2017-12-25T04:39:49.245Z,13.87
2017-12-25T04:42:17.300Z,13.70
2017-12-25T04:44:44.961Z,14.87
2017-12-25T04:47:12.527Z,12.83
2017-12-25T04:49:40.445Z,13.23
2017-12-25T04:52:08.164Z,12.77
2017-12-25T04:54:35.688Z,12.57
2017-12-25T04:57:03.236Z,12.60
2017-12-25T04:59:30.814Z,12.23
2017-12-25T05:01:58.345Z,12.57
2017-12-25T05:04:26.325Z,11.57
2017-12-25T05:06:53.955Z,14.90
2017-12-25T05:09:21.626Z,14.13
2017-12-25T05:11:49.328Z,13.17
2017-12-25T05:14:16.847Z,13.77
2017-12-25T05:16:44.447Z,13.83
2017-12-25T05:19:12.059Z,15.53
2017-12-25T05:21:39.718Z,13.50
2017-12-25T05:24:07.346Z,12.50
2017-12-25T05:26:35.079Z,14.20
2017-12-25T05:29:02.641Z,13.33
2017-12-25T05:31:30.156Z,13.67
2017-12-25T05:33:57.700Z,12.17
2017-12-25T05:36:25.248Z,14.27
2017-12-25T05:38:52.783Z,13.33
2017-12-25T05:41:20.490Z,12.00
2017-12-25T05:43:48.040Z,12.43
2017-12-25T05:46:15.564Z,13.20
2017-12-25T05:48:43.141Z,12.03
2017-12-25T05:51:10.654Z,12.80
2017-12-25T05:53:38.223Z,12.40
2017-12-25T05:56:05.815Z,12.80
2017-12-25T05:58:33.755Z,11.50
2017-12-25T06:01:01.272Z,12.83
2017-12-25T06:03:28.824Z,14.07
2017-12-25T06:05:56.410Z,12.27
2017-12-25T06:08:24.026Z,12.60
2017-12-25T06:10:51.577Z,12.17
2017-12-25T06:13:19.133Z,12.00
2017-12-25T06:15:46.676Z,12.13
2017-12-25T06:18:14.201Z,13.73
2017-12-25T06:20:41.821Z,14.40
2017-12-25T06:23:09.646Z,12.97
2017-12-25T06:25:37.201Z,13.87
2017-12-25T06:28:04.772Z,12.90
2017-12-25T06:30:32.363Z,13.07
2017-12-25T06:32:59.922Z,11.33
2017-12-25T06:35:27.472Z,12.80
2017-12-25T06:37:54.991Z,11.80
2017-12-25T06:40:22.757Z,11.30
2017-12-25T06:42:50.308Z,12.53
2017-12-25T06:45:17.856Z,13.03
2017-12-25T06:47:45.402Z,13.73
2017-12-25T06:50:13.039Z,13.30
2017-12-25T06:52:41.036Z,13.97
2017-12-25T06:55:08.811Z,11.90
2017-12-25T06:57:36.488Z,12.27
2017-12-25T07:00:04.179Z,11.43
2017-12-25T07:02:31.729Z,11.00
2017-12-25T07:04:59.298Z,12.40
2017-12-25T07:07:26.880Z,11.27
2017-12-25T07:09:54.867Z,10.20
2017-12-25T07:12:22.488Z,9.20
2017-12-25T07:14:50.005Z,9.93
2017-12-25T07:17:17.566Z,11.70
2017-12-25T07:19:45.189Z,10.83
2017-12-25T07:22:12.867Z,10.17
2017-12-25T07:24:40.439Z,8.50
2017-12-25T07:27:08.049Z,9.10
2017-12-25T07:29:35.598Z,8.50
2017-12-25T07:32:03.102Z,9.20
2017-12-25T07:34:30.669Z,9.80
2017-12-25T07:36:58.250Z,9.90
2017-12-25T07:39:25.837Z,9.00
2017-12-25T07:41:53.382Z,9.00
2017-12-25T07:44:20.930Z,8.53
2017-12-25T07:46:48.440Z,7.80
2017-12-25T07:49:16.018Z,8.73
2017-12-25T07:51:43.694Z,7.30
2017-12-25T07:54:11.597Z,9.03
2017-12-25T07:56:39.149Z,10.30
2017-12-25T07:59:06.698Z,11.00
2017-12-25T08:01:34.293Z,13.10
2017-12-25T08:04:01.797Z,8.73
2017-12-25T08:06:29.341Z,24.00
2017-12-25T08:08:57.129Z,9.43
2017-12-25T08:11:24.803Z,9.10
2017-12-25T08:13:52.382Z,7.23
2017-12-25T08:16:20.057Z,7.30
2017-12-25T08:18:47.669Z,6.90
2017-12-25T08:21:15.650Z,6.37
2017-12-25T08:23:43.165Z,6.30
2017-12-25T08:26:10.688Z,4.70
2017-12-25T08:28:38.294Z,6.10
2017-12-25T08:31:05.832Z,5.40
2017-12-25T08:33:33.399Z,4.90
2017-12-25T08:36:01.004Z,5.80
2017-12-25T08:38:28.527Z,5.60
2017-12-25T08:40:56.083Z,5.57
2017-12-25T08:43:23.682Z,4.50
2017-12-25T08:45:51.336Z,4.83
2017-12-25T08:48:18.882Z,5.20
2017-12-25T08:50:46.486Z,4.53
2017-12-25T08:53:14.043Z,4.60
2017-12-25T08:55:41.667Z,4.97
2017-12-25T08:58:09.266Z,5.57
2017-12-25T09:00:36.834Z,5.90
2017-12-25T09:03:04.385Z,5.17
2017-12-25T09:05:32.015Z,5.53
2017-12-25T09:07:59.566Z,6.30
2017-12-25T09:10:27.071Z,5.90
2017-12-25T09:12:54.850Z,5.93
2017-12-25T09:15:22.374Z,5.37
2017-12-25T09:17:50.098Z,5.47
2017-12-25T09:20:17.655Z,5.77
2017-12-25T09:22:45.167Z,10.77
2017-12-25T09:25:12.676Z,7.30
2017-12-25T09:27:40.497Z,4.83
2017-12-25T09:30:08.018Z,6.70
2017-12-25T09:32:35.561Z,5.27
2017-12-25T09:35:03.150Z,5.13
2017-12-25T09:37:30.686Z,6.10
2017-12-25T09:39:58.248Z,4.57
2017-12-25T09:42:25.763Z,4.50
2017-12-25T09:44:53.272Z,5.60
2017-12-25T09:47:20.863Z,5.37
2017-12-25T09:49:48.410Z,4.10
2017-12-25T09:52:15.981Z,6.03
2017-12-25T09:54:43.583Z,5.17
2017-12-25T09:57:11.186Z,5.40
2017-12-25T09:59:38.691Z,4.80
2017-12-25T10:02:06.251Z,4.90
2017-12-25T10:04:33.811Z,4.93
2017-12-25T10:07:01.515Z,4.77
2017-12-25T10:09:29.029Z,4.43
2017-12-25T10:11:56.631Z,5.20
2017-12-25T10:14:24.151Z,5.47
2017-12-25T10:16:51.706Z,4.50
2017-12-25T10:19:19.525Z,4.00
2017-12-25T10:21:47.079Z,5.37
2017-12-25T10:24:14.646Z,5.20
2017-12-25T10:26:42.218Z,4.90
2017-12-25T10:29:09.779Z,4.23
2017-12-25T10:31:37.348Z,5.23
2017-12-25T10:34:04.886Z,4.30
2017-12-25T10:36:32.441Z,4.80
2017-12-25T10:39:00.021Z,6.73
2017-12-25T10:41:27.536Z,25.80
2017-12-25T10:43:55.358Z,5.17
2017-12-25T10:46:22.906Z,5.37
2017-12-25T10:48:50.420Z,4.50
2017-12-25T10:51:17.992Z,4.30
2017-12-25T10:53:45.566Z,4.37
2017-12-25T10:56:13.110Z,4.10
2017-12-25T10:58:40.719Z,5.00
2017-12-25T11:01:08.262Z,4.40
2017-12-25T11:03:35.805Z,4.50
2017-12-25T11:06:03.750Z,4.00
2017-12-25T11:08:31.259Z,4.60
2017-12-25T11:10:58.785Z,4.20
2017-12-25T11:13:26.678Z,4.30
2017-12-25T11:15:54.189Z,4.30
2017-12-25T11:18:21.739Z,4.33
2017-12-25T11:20:49.335Z,4.13
2017-12-25T11:23:16.894Z,4.23
2017-12-25T11:25:44.453Z,4.97
2017-12-25T11:28:11.964Z,4.73
2017-12-25T11:30:39.542Z,4.70
2017-12-25T11:33:07.198Z,4.67
2017-12-25T11:35:34.763Z,5.50
2017-12-25T11:38:02.353Z,5.60
2017-12-25T11:40:29.929Z,5.30
2017-12-25T11:42:57.470Z,4.20
2017-12-25T11:45:25.050Z,5.30
2017-12-25T11:47:52.594Z,5.90
2017-12-25T11:50:20.141Z,6.70
2017-12-25T11:52:47.812Z,6.43
2017-12-25T11:55:15.406Z,6.20
2017-12-25T11:57:43.034Z,6.30
2017-12-25T12:00:10.617Z,7.33
2017-12-25T12:02:38.162Z,6.23
2017-12-25T12:05:05.713Z,6.30
2017-12-25T12:07:33.660Z,6.83
2017-12-25T12:10:01.168Z,6.87
2017-12-25T12:12:28.671Z,5.93
2017-12-25T12:14:56.283Z,7.13
2017-12-25T12:17:23.800Z,6.40
2017-12-25T12:19:51.313Z,6.10
2017-12-25T12:22:19.052Z,6.27
2017-12-25T12:24:46.577Z,6.23
2017-12-25T12:27:14.145Z,5.40
2017-12-25T12:29:41.689Z,5.83
2017-12-25T12:32:09.381Z,5.30
2017-12-25T12:34:37.036Z,5.87
2017-12-25T12:37:04.590Z,4.30
2017-12-25T12:39:32.194Z,4.73
2017-12-25T12:41:59.738Z,4.90
2017-12-25T12:44:27.427Z,4.40
2017-12-25T12:46:54.997Z,4.10
2017-12-25T12:49:22.578Z,3.90
2017-12-25T12:51:50.137Z,4.63
2017-12-25T12:54:17.704Z,3.93
2017-12-25T12:56:45.732Z,3.03
2017-12-25T12:59:13.261Z,2.77
2017-12-25T13:01:40.862Z,3.47
2017-12-25T13:04:08.363Z,2.40
2017-12-25T13:06:35.873Z,2.37
2017-12-25T13:09:03.480Z,1.67
2017-12-25T13:11:30.988Z,1.53
2017-12-25T13:13:58.533Z,1.80
2017-12-25T13:16:26.106Z,1.80
2017-12-25T13:18:53.650Z,1.40
2017-12-25T13:21:21.357Z,1.70
2017-12-25T13:23:49.136Z,1.10
2017-12-25T13:26:17.721Z,1.53
2017-12-25T13:28:45.646Z,1.10
2017-12-25T13:31:13.199Z,1.23
2017-12-25T13:33:40.841Z,1.27
2017-12-25T13:36:08.534Z,1.33
2017-12-25T13:38:36.102Z,1.93
2017-12-25T13:41:03.621Z,2.40
2017-12-25T13:43:31.568Z,1.50
2017-12-25T13:45:59.105Z,1.30
2017-12-25T13:48:26.610Z,1.40
2017-12-25T13:50:54.179Z,2.17
2017-12-25T13:53:22.365Z,1.70
2017-12-25T13:55:50.243Z,2.23
2017-12-25T13:58:17.795Z,2.30
2017-12-25T14:00:45.351Z,2.20
2017-12-25T14:03:12.966Z,2.90
2017-12-25T14:05:40.515Z,3.00
2017-12-25T14:08:08.066Z,3.60
2017-12-25T14:10:35.630Z,2.73
2017-12-25T14:13:03.139Z,3.13
2017-12-25T14:15:30.686Z,3.67
2017-12-25T14:17:58.248Z,2.70
2017-12-25T14:20:25.785Z,3.40
2017-12-25T14:22:53.329Z,3.40
2017-12-25T14:25:21.124Z,2.70
2017-12-25T14:27:48.677Z,2.80
2017-12-25T14:30:16.281Z,3.00
2017-12-25T14:32:43.829Z,2.67
2017-12-25T14:35:11.364Z,3.23
2017-12-25T14:37:38.938Z,3.40
2017-12-25T14:40:06.529Z,2.47
2017-12-25T14:42:34.049Z,2.30
2017-12-25T14:45:01.594Z,1.60
2017-12-25T14:47:29.382Z,1.97
2017-12-25T14:49:57.057Z,1.80
2017-12-25T14:52:24.938Z,2.03
2017-12-25T14:54:52.476Z,2.13
2017-12-25T14:57:20.013Z,1.70
2017-12-25T14:59:47.865Z,2.23
2017-12-25T15:02:15.421Z,2.03
2017-12-25T15:04:42.941Z,2.53
2017-12-25T15:07:10.566Z,2.47
2017-12-25T15:09:38.109Z,2.57
2017-12-25T15:12:05.658Z,2.40
2017-12-25T15:14:33.592Z,2.30
2017-12-25T15:17:01.109Z,2.73
2017-12-25T15:19:28.675Z,2.23
2017-12-25T15:21:56.289Z,1.90
2017-12-25T15:24:23.833Z,2.60
2017-12-25T15:26:51.345Z,2.77
2017-12-25T15:29:19.052Z,2.70
2017-12-25T15:31:46.598Z,3.10
2017-12-25T15:34:14.137Z,4.00
2017-12-25T15:36:41.682Z,4.07
2017-12-25T15:39:09.295Z,3.83
2017-12-25T15:41:36.917Z,3.60
2017-12-25T15:44:04.638Z,4.40
2017-12-25T15:46:32.367Z,3.27
2017-12-25T15:49:00.291Z,4.40
2017-12-25T15:51:27.834Z,4.03
2017-12-25T15:53:55.344Z,4.10
2017-12-25T15:56:22.954Z,4.30
2017-12-25T15:58:50.517Z,4.40
2017-12-25T16:01:18.061Z,4.00
2017-12-25T16:03:45.680Z,3.73
2017-12-25T16:06:13.218Z,5.63
2017-12-25T16:08:40.772Z,4.03
2017-12-25T16:11:08.308Z,4.57
2017-12-25T16:13:35.820Z,4.30
2017-12-25T16:16:03.438Z,4.13
2017-12-25T16:18:30.960Z,5.00
2017-12-25T16:20:58.498Z,3.93
2017-12-25T16:23:26.414Z,4.77
2017-12-25T16:25:54.317Z,4.27
2017-12-25T16:28:21.986Z,6.70
2017-12-25T16:30:49.563Z,4.60
2017-12-25T16:33:17.114Z,3.93
2017-12-25T16:35:44.625Z,3.60
2017-12-25T16:38:12.424Z,3.40
2017-12-25T16:40:40.008Z,3.07
2017-12-25T16:43:07.584Z,3.60
2017-12-25T16:45:35.097Z,3.50
2017-12-25T16:48:02.639Z,3.00
2017-12-25T16:50:30.229Z,3.10
2017-12-25T16:52:57.745Z,3.13
2017-12-25T16:55:25.294Z,2.80
2017-12-25T16:57:53.181Z,2.67
2017-12-25T17:00:20.722Z,2.60
2017-12-25T17:02:48.266Z,3.07
2017-12-25T17:05:15.853Z,2.70
2017-12-25T17:07:43.607Z,3.07
2017-12-25T17:10:11.159Z,2.90
2017-12-25T17:12:38.700Z,3.70
2017-12-25T17:15:07.961Z,3.50
2017-12-25T17:17:35.709Z,3.30
2017-12-25T17:20:04.176Z,3.53
2017-12-25T17:22:31.805Z,3.83
2017-12-25T17:24:59.350Z,3.23
2017-12-25T17:27:27.163Z,3.80
2017-12-25T17:29:54.723Z,4.23
2017-12-25T17:32:22.512Z,3.67
2017-12-25T17:34:50.062Z,3.90
2017-12-25T17:37:17.629Z,3.07
2017-12-25T17:39:45.164Z,3.83
2017-12-25T17:42:12.840Z,3.70
2017-12-25T17:44:40.436Z,4.50
2017-12-25T17:47:07.945Z,4.03
2017-12-25T17:49:35.537Z,3.60
2017-12-25T17:52:03.123Z,3.87
2017-12-25T17:54:30.649Z,3.20
2017-12-25T17:56:58.339Z,4.13
2017-12-25T17:59:25.903Z,3.90
2017-12-25T18:01:53.437Z,2.97
2017-12-25T18:04:21.047Z,3.17
2017-12-25T18:06:48.666Z,4.67
2017-12-25T18:09:16.667Z,4.90
2017-12-25T18:11:44.186Z,4.00
2017-12-25T18:14:11.703Z,3.07
2017-12-25T18:16:39.313Z,3.20
2017-12-25T18:19:06.874Z,4.43
2017-12-25T18:21:34.397Z,3.70
2017-12-25T18:24:02.164Z,3.33
2017-12-25T18:26:29.942Z,3.80
2017-12-25T18:28:57.452Z,3.50
2017-12-25T18:31:25.067Z,3.90
2017-12-25T18:33:52.618Z,3.67
2017-12-25T18:36:20.128Z,2.83
2017-12-25T18:38:47.740Z,3.63
2017-12-25T18:41:15.294Z,3.63
2017-12-25T18:43:42.796Z,3.30
2017-12-25T18:46:10.332Z,2.90
2017-12-25T18:48:37.869Z,3.30
2017-12-25T18:51:05.791Z,3.70
2017-12-25T18:53:33.341Z,3.30
2017-12-25T18:56:01.127Z,3.13
2017-12-25T18:58:28.729Z,3.63
2017-12-25T19:00:56.355Z,3.23
2017-12-25T19:03:24.831Z,4.60
2017-12-25T19:05:52.646Z,3.50
2017-12-25T19:08:20.230Z,4.00
2017-12-25T19:10:47.774Z,3.90
2017-12-25T19:13:15.324Z,3.67
2017-12-25T19:15:42.868Z,3.57
2017-12-25T19:18:10.430Z,3.53
2017-12-25T19:20:38.189Z,3.53
2017-12-25T19:23:05.754Z,4.10
2017-12-25T19:25:33.300Z,3.70
2017-12-25T19:28:01.313Z,4.37
2017-12-25T19:30:28.837Z,4.30
2017-12-25T19:32:56.394Z,3.90
2017-12-25T19:35:24.024Z,3.80
2017-12-25T19:37:51.591Z,3.23
2017-12-25T19:40:19.109Z,3.60
2017-12-25T19:42:48.787Z,3.63
2017-12-25T19:45:17.397Z,3.47
2017-12-25T19:47:45.163Z,3.37
2017-12-25T19:50:12.745Z,3.37
2017-12-25T19:52:40.247Z,3.17
2017-12-25T19:55:07.799Z,2.27
2017-12-25T19:57:35.359Z,2.73
2017-12-25T20:00:03.041Z,2.93
2017-12-25T20:02:30.589Z,2.50
2017-12-25T20:04:58.262Z,2.60
2017-12-25T20:07:25.782Z,2.77
2017-12-25T20:09:53.288Z,2.80
2017-12-25T20:12:20.961Z,2.37
2017-12-25T20:14:48.866Z,2.80
2017-12-25T20:17:16.422Z,3.50
2017-12-25T20:19:43.966Z,2.67
2017-12-25T20:22:11.502Z,2.70
2017-12-25T20:24:39.103Z,3.17
2017-12-25T20:27:06.666Z,2.27
2017-12-25T20:29:34.197Z,2.57
2017-12-25T20:32:01.801Z,2.70
2017-12-25T20:34:29.302Z,3.17
2017-12-25T20:36:56.813Z,2.70
2017-12-25T20:39:24.347Z,2.37
2017-12-25T20:41:52.041Z,2.40
2017-12-25T20:44:19.558Z,2.53
2017-12-25T20:46:47.125Z,2.50
2017-12-25T20:49:14.693Z,3.30
2017-12-25T20:51:42.243Z,2.90
2017-12-25T20:54:09.832Z,3.07
2017-12-25T20:56:37.348Z,3.57
2017-12-25T20:59:04.950Z,2.90
2017-12-25T21:01:32.494Z,2.97
2017-12-25T21:04:00.255Z,2.40
2017-12-25T21:06:27.846Z,2.73
2017-12-25T21:08:55.365Z,3.60
2017-12-25T21:11:22.881Z,3.30
2017-12-25T21:13:50.955Z,3.03
2017-12-25T21:16:18.548Z,4.73
2017-12-25T21:18:46.061Z,3.67
2017-12-25T21:21:13.620Z,3.10
2017-12-25T21:23:41.127Z,3.17
2017-12-25T21:26:08.925Z,3.10
2017-12-25T21:28:36.846Z,2.93
2017-12-25T21:31:04.392Z,3.67
2017-12-25T21:33:31.952Z,4.87
2017-12-25T21:35:59.524Z,5.87
2017-12-25T21:38:27.099Z,3.47
2017-12-25T21:40:54.615Z,3.60
2017-12-25T21:43:22.760Z,4.13
2017-12-25T21:45:50.307Z,4.40
2017-12-25T21:48:17.820Z,4.43
2017-12-25T21:50:45.375Z,3.90
2017-12-25T21:53:12.938Z,3.70
2017-12-25T21:55:40.461Z,3.67
2017-12-25T21:58:08.057Z,3.70
2017-12-25T22:00:35.601Z,3.63
2017-12-25T22:03:03.153Z,3.33
2017-12-25T22:05:30.728Z,4.00
2017-12-25T22:07:58.231Z,4.00
2017-12-25T22:10:25.747Z,4.40
2017-12-25T22:12:53.431Z,3.57
2017-12-25T22:15:20.990Z,3.20
2017-12-25T22:17:48.536Z,4.17
2017-12-25T22:20:16.438Z,4.00
2017-12-25T22:22:43.948Z,4.43
2017-12-25T22:25:11.443Z,5.43
2017-12-25T22:27:39.426Z,4.73
2017-12-25T22:30:06.953Z,4.60
2017-12-25T22:32:34.494Z,5.23
2017-12-25T22:35:02.208Z,3.83
2017-12-25T22:37:29.878Z,4.93
2017-12-25T22:39:57.467Z,4.90
2017-12-25T22:42:25.060Z,3.90
2017-12-25T22:44:52.600Z,4.23
2017-12-25T22:47:20.381Z,4.27
2017-12-25T22:49:48.098Z,4.37
2017-12-25T22:52:15.722Z,4.10
2017-12-25T22:54:43.296Z,5.30
2017-12-25T22:57:11.081Z,4.27
2017-12-25T22:59:38.689Z,3.30
2017-12-25T23:02:06.196Z,4.37
2017-12-25T23:04:33.699Z,3.77
2017-12-25T23:07:01.231Z,4.53
2017-12-25T23:09:29.182Z,4.57
2017-12-25T23:11:56.687Z,4.20
2017-12-25T23:14:24.243Z,4.00
2017-12-25T23:16:51.801Z,4.00
2017-12-25T23:19:19.347Z,3.57
2017-12-25T23:21:47.008Z,4.20
2017-12-25T23:24:14.548Z,3.50
2017-12-25T23:26:42.092Z,3.53
2017-12-25T23:29:09.679Z,3.80
2017-12-25T23:31:37.210Z,4.33
2017-12-25T23:34:04.720Z,4.00
2017-12-25T23:36:32.280Z,3.97
2017-12-25T23:38:59.792Z,5.23
2017-12-25T23:41:27.365Z,4.43
2017-12-25T23:43:54.929Z,4.73
2017-12-25T23:46:22.507Z,4.60
2017-12-25T23:48:50.053Z,4.23
2017-12-25T23:51:18.439Z,5.37
2017-12-25T23:53:45.985Z,4.43
2017-12-25T23:56:13.546Z,5.37
2017-12-25T23:58:41.146Z,4.43
